createdAt,value
2022-10-08T00:01:07.037Z,76.01
2022-10-08T00:03:37.256Z,75.15
2022-10-08T00:06:07.306Z,76.20
2022-10-08T00:08:38.751Z,76.65
2022-10-08T00:11:10.421Z,76.47
2022-10-08T00:13:41.596Z,76.22
2022-10-08T00:16:09.965Z,76.33
2022-10-08T00:18:37.491Z,76.48
2022-10-08T00:21:07.113Z,76.63
2022-10-08T00:23:36.625Z,75.97
2022-10-08T00:26:07.134Z,77.39
2022-10-08T00:28:35.616Z,76.45
2022-10-08T00:31:07.605Z,76.85
2022-10-08T00:33:36.166Z,76.92
2022-10-08T00:36:04.066Z,77.23
2022-10-08T00:38:31.813Z,77.26
2022-10-08T00:41:00.727Z,77.04
2022-10-08T00:43:40.645Z,76.66
2022-10-08T00:46:18.836Z,76.99
2022-10-08T00:48:46.543Z,76.68
2022-10-08T00:51:14.113Z,77.70
2022-10-08T00:53:41.560Z,76.72
2022-10-08T00:56:11.034Z,77.89
2022-10-08T00:58:39.918Z,77.03
2022-10-08T01:01:07.490Z,77.96
2022-10-08T01:03:34.950Z,77.45
2022-10-08T01:06:12.109Z,77.96
2022-10-08T01:08:44.661Z,77.78
2022-10-08T01:11:23.799Z,79.93
2022-10-08T01:14:02.968Z,77.65
2022-10-08T01:16:40.642Z,77.91
2022-10-08T01:19:23.301Z,76.88
2022-10-08T01:22:01.933Z,77.69
2022-10-08T01:24:58.596Z,78.92
2022-10-08T01:27:31.982Z,78.97
2022-10-08T01:30:05.698Z,78.28
2022-10-08T01:32:39.854Z,78.33
2022-10-08T01:35:12.502Z,83.45
2022-10-08T01:37:43.264Z,78.11
2022-10-08T01:40:17.487Z,76.97
2022-10-08T01:42:48.939Z,77.23
2022-10-08T01:45:23.564Z,78.16
2022-10-08T01:47:53.196Z,78.03
2022-10-08T01:50:25.474Z,77.67
2022-10-08T01:52:58.877Z,79.06
2022-10-08T01:55:30.951Z,80.58
2022-10-08T01:58:06.112Z,80.87
2022-10-08T02:00:34.385Z,79.42
2022-10-08T02:03:02.356Z,80.33
2022-10-08T02:05:35.106Z,79.00
2022-10-08T02:08:02.981Z,78.71
2022-10-08T02:10:31.397Z,79.55
2022-10-08T02:13:00.339Z,79.71
2022-10-08T02:15:36.743Z,80.48
2022-10-08T02:18:10.481Z,81.00
2022-10-08T02:20:41.707Z,79.12
2022-10-08T02:23:14.181Z,78.64
2022-10-08T02:25:47.138Z,78.98
2022-10-08T02:28:22.752Z,79.16
2022-10-08T02:30:55.855Z,78.90
2022-10-08T02:33:28.048Z,78.33
2022-10-08T02:35:58.448Z,79.18
2022-10-08T02:38:33.326Z,79.02
2022-10-08T02:41:04.478Z,78.46
2022-10-08T02:43:36.580Z,78.09
2022-10-08T02:46:09.670Z,78.90
2022-10-08T02:48:42.283Z,79.30
2022-10-08T02:51:15.591Z,79.24
2022-10-08T02:53:43.949Z,78.88
2022-10-08T02:56:16.221Z,79.18
2022-10-08T02:58:46.170Z,79.28
2022-10-08T03:01:17.801Z,79.36
2022-10-08T03:03:52.061Z,79.36
2022-10-08T03:06:20.323Z,79.26
2022-10-08T03:08:50.153Z,79.39
2022-10-08T03:11:18.040Z,79.55
2022-10-08T03:13:50.244Z,79.35
2022-10-08T03:16:22.978Z,79.23
2022-10-08T03:18:52.170Z,79.31
2022-10-08T03:21:19.898Z,80.24
2022-10-08T03:23:47.472Z,78.84
2022-10-08T03:26:17.707Z,80.65
2022-10-08T03:28:45.154Z,80.10
2022-10-08T03:31:13.995Z,79.77
2022-10-08T03:33:41.480Z,79.80
2022-10-08T03:36:09.034Z,79.43
2022-10-08T03:38:36.834Z,79.19
2022-10-08T03:41:04.280Z,78.93
2022-10-08T03:43:33.241Z,79.20
2022-10-08T03:46:00.842Z,79.39
2022-10-08T03:48:30.172Z,79.12
2022-10-08T03:50:59.553Z,80.13
2022-10-08T03:53:27.867Z,79.62
2022-10-08T03:55:55.692Z,79.32
2022-10-08T03:58:23.115Z,79.46
2022-10-08T04:01:00.365Z,78.64
2022-10-08T04:03:30.606Z,79.33
2022-10-08T04:05:58.372Z,78.80
2022-10-08T04:08:26.364Z,79.51
2022-10-08T04:10:54.243Z,79.09
2022-10-08T04:13:21.737Z,79.56
2022-10-08T04:15:50.676Z,79.18
2022-10-08T04:18:18.571Z,78.71
2022-10-08T04:20:47.251Z,78.62
2022-10-08T04:23:14.631Z,78.74
2022-10-08T04:25:49.944Z,78.61
2022-10-08T04:28:17.502Z,80.20
2022-10-08T04:30:45.025Z,79.40
2022-10-08T04:33:12.535Z,79.58
2022-10-08T04:35:39.911Z,79.25
2022-10-08T04:38:08.624Z,79.19
2022-10-08T04:40:36.004Z,79.19
2022-10-08T04:43:03.428Z,79.40
2022-10-08T04:45:30.833Z,78.91
2022-10-08T04:47:58.239Z,78.34
2022-10-08T04:50:25.781Z,78.70
2022-10-08T04:52:53.163Z,78.60
2022-10-08T04:55:24.732Z,79.15
2022-10-08T04:57:52.127Z,79.03
2022-10-08T05:00:19.737Z,78.83
2022-10-08T05:02:47.371Z,78.92
2022-10-08T05:05:15.583Z,78.75
2022-10-08T05:07:43.181Z,79.41
2022-10-08T05:10:11.031Z,78.69
2022-10-08T05:12:39.772Z,78.98
2022-10-08T05:15:08.051Z,78.80
2022-10-08T05:17:35.543Z,78.79
2022-10-08T05:20:03.316Z,79.11
2022-10-08T05:22:30.769Z,78.71
2022-10-08T05:24:58.126Z,78.67
2022-10-08T05:27:25.582Z,79.04
2022-10-08T05:29:54.262Z,79.10
2022-10-08T05:32:21.746Z,78.42
2022-10-08T05:34:49.259Z,79.00
2022-10-08T05:37:16.698Z,78.84
2022-10-08T05:39:44.143Z,78.53
2022-10-08T05:42:11.607Z,78.86
2022-10-08T05:44:40.594Z,79.39
2022-10-08T05:47:11.088Z,79.52
2022-10-08T05:49:38.532Z,78.62
2022-10-08T05:52:05.938Z,79.26
2022-10-08T05:54:33.447Z,78.51
2022-10-08T05:57:00.865Z,78.84
2022-10-08T05:59:28.280Z,79.43
2022-10-08T06:01:55.691Z,78.82
2022-10-08T06:04:24.523Z,78.84
2022-10-08T06:06:51.975Z,79.14
2022-10-08T06:09:21.416Z,79.73
2022-10-08T06:11:49.590Z,79.44
2022-10-08T06:14:17.853Z,78.87
2022-10-08T06:16:45.540Z,79.18
2022-10-08T06:19:13.824Z,78.79
2022-10-08T06:21:42.667Z,78.39
2022-10-08T06:24:12.569Z,78.38
2022-10-08T06:26:42.142Z,78.22
2022-10-08T06:29:13.762Z,79.93
2022-10-08T06:31:41.471Z,78.36
2022-10-08T06:34:09.331Z,78.76
2022-10-08T06:36:37.941Z,78.61
2022-10-08T06:39:08.904Z,77.63
2022-10-08T06:41:36.524Z,77.54
2022-10-08T06:44:05.579Z,77.22
2022-10-08T06:46:33.139Z,77.77
2022-10-08T06:49:01.510Z,77.67
2022-10-08T06:51:30.263Z,77.87
2022-10-08T06:54:04.365Z,78.52
2022-10-08T06:56:36.049Z,77.95
2022-10-08T06:59:03.845Z,78.35
2022-10-08T07:01:33.884Z,78.19
2022-10-08T07:04:02.608Z,79.07
2022-10-08T07:06:30.361Z,78.66
2022-10-08T07:08:59.719Z,79.18
2022-10-08T07:11:28.283Z,79.35
2022-10-08T07:13:58.555Z,81.37
2022-10-08T07:16:27.634Z,79.73
2022-10-08T07:18:58.234Z,78.04
2022-10-08T07:21:25.981Z,77.26
2022-10-08T07:23:53.700Z,78.35
2022-10-08T07:26:22.830Z,78.73
2022-10-08T07:28:52.019Z,78.44
2022-10-08T07:31:23.286Z,78.60
2022-10-08T07:33:50.765Z,76.78
2022-10-08T07:36:20.004Z,76.40
2022-10-08T07:38:48.247Z,76.59
2022-10-08T07:41:15.849Z,76.41
2022-10-08T07:43:43.382Z,76.63
2022-10-08T07:46:12.230Z,77.64
2022-10-08T07:48:41.080Z,75.79
2022-10-08T07:51:10.671Z,75.30
2022-10-08T07:53:38.654Z,75.20
2022-10-08T07:56:06.690Z,75.96
2022-10-08T07:58:34.354Z,75.00
2022-10-08T08:01:03.885Z,74.20
2022-10-08T08:03:31.898Z,74.18
2022-10-08T08:06:03.336Z,73.35
2022-10-08T08:08:30.974Z,73.21
2022-10-08T08:10:59.032Z,74.19
2022-10-08T08:13:26.894Z,73.99
2022-10-08T08:15:58.396Z,72.79
2022-10-08T08:18:28.891Z,73.29
2022-10-08T08:21:00.247Z,72.63
2022-10-08T08:23:32.819Z,75.40
2022-10-08T08:26:01.886Z,76.43
2022-10-08T08:28:30.188Z,74.75
2022-10-08T08:31:07.807Z,72.20
2022-10-08T08:33:35.165Z,74.55
2022-10-08T08:36:02.604Z,75.49
2022-10-08T08:38:30.067Z,73.35
2022-10-08T08:41:13.051Z,74.75
2022-10-08T08:43:41.588Z,76.96
2022-10-08T08:46:10.565Z,76.03
2022-10-08T08:48:40.263Z,74.31
2022-10-08T08:51:07.667Z,72.61
2022-10-08T08:53:35.163Z,74.82
2022-10-08T08:56:06.823Z,72.71
2022-10-08T08:58:41.283Z,75.63
2022-10-08T09:01:17.991Z,75.98
2022-10-08T09:03:50.124Z,75.27
2022-10-08T09:06:22.616Z,81.73
2022-10-08T09:08:55.433Z,78.70
2022-10-08T09:11:25.021Z,76.97
2022-10-08T09:13:57.616Z,75.34
2022-10-08T09:16:28.018Z,71.21
2022-10-08T09:18:55.635Z,72.99
2022-10-08T09:21:35.121Z,73.02
2022-10-08T09:24:03.696Z,69.59
2022-10-08T09:26:34.977Z,72.04
2022-10-08T09:29:03.486Z,70.27
2022-10-08T09:31:37.211Z,69.87
2022-10-08T09:34:17.151Z,69.51
2022-10-08T09:36:47.290Z,70.27
2022-10-08T09:39:19.256Z,71.12
2022-10-08T09:42:04.643Z,69.28
2022-10-08T09:44:41.045Z,69.24
2022-10-08T09:47:12.608Z,66.65
2022-10-08T09:49:40.143Z,67.30
2022-10-08T09:52:16.947Z,69.14
2022-10-08T09:54:48.687Z,64.13
2022-10-08T09:57:20.103Z,65.96
2022-10-08T09:59:53.322Z,69.04
2022-10-08T10:02:33.580Z,68.49
2022-10-08T10:05:02.772Z,68.43
2022-10-08T10:07:41.961Z,68.24
2022-10-08T10:10:17.713Z,69.07
2022-10-08T10:12:50.862Z,67.45
2022-10-08T10:15:21.526Z,66.72
2022-10-08T10:17:54.236Z,68.25
2022-10-08T10:20:28.245Z,67.89
2022-10-08T10:23:00.519Z,68.00
2022-10-08T10:25:35.647Z,68.42
2022-10-08T10:28:09.536Z,69.10
2022-10-08T10:30:48.645Z,69.39
2022-10-08T10:33:21.327Z,68.49
2022-10-08T10:35:53.576Z,69.35
2022-10-08T10:38:24.339Z,69.13
2022-10-08T10:41:05.371Z,70.25
2022-10-08T10:43:42.907Z,67.09
2022-10-08T10:46:24.759Z,67.89
2022-10-08T10:48:52.186Z,68.25
2022-10-08T10:51:39.546Z,70.53
2022-10-08T10:54:21.765Z,69.56
2022-10-08T10:56:54.778Z,71.98
2022-10-08T10:59:38.420Z,69.94
2022-10-08T11:02:16.847Z,70.75
2022-10-08T11:04:50.840Z,67.97
2022-10-08T11:07:36.135Z,68.95
2022-10-08T11:10:15.265Z,68.42
2022-10-08T11:12:53.880Z,72.90
2022-10-08T11:15:33.714Z,72.14
2022-10-08T11:18:15.047Z,69.19
2022-10-08T11:21:00.490Z,70.38
2022-10-08T11:23:52.653Z,69.72
2022-10-08T11:26:28.019Z,72.21
2022-10-08T11:29:07.095Z,73.69
2022-10-08T11:31:42.156Z,78.39
2022-10-08T11:34:22.340Z,79.08
2022-10-08T11:37:01.887Z,77.26
2022-10-08T11:39:35.835Z,75.86
2022-10-08T11:42:11.908Z,76.25
2022-10-08T11:44:39.950Z,75.92
2022-10-08T11:47:37.272Z,77.29
2022-10-08T11:50:06.740Z,78.04
2022-10-08T11:52:35.546Z,79.21
2022-10-08T11:55:03.058Z,79.00
2022-10-08T11:58:05.747Z,79.68
2022-10-08T12:00:32.890Z,78.54
2022-10-08T12:03:03.387Z,79.51
2022-10-08T12:05:39.623Z,78.86
2022-10-08T12:08:06.993Z,78.76
2022-10-08T12:10:36.836Z,77.82
2022-10-08T12:13:22.568Z,80.19
2022-10-08T12:15:52.143Z,77.76
2022-10-08T12:18:46.855Z,75.74
2022-10-08T12:21:53.790Z,75.48
2022-10-08T12:25:00.194Z,75.13
2022-10-08T12:27:37.833Z,76.42
2022-10-08T12:30:08.666Z,78.43
2022-10-08T12:32:55.769Z,76.86
2022-10-08T12:35:28.370Z,76.28
2022-10-08T12:38:34.175Z,77.05
2022-10-08T12:41:19.135Z,77.64
2022-10-08T12:43:54.080Z,76.61
2022-10-08T12:46:35.008Z,76.45
2022-10-08T12:49:11.092Z,76.29
2022-10-08T12:51:47.510Z,74.68
2022-10-08T12:54:19.733Z,73.27
2022-10-08T12:56:47.795Z,74.06
2022-10-08T12:59:15.807Z,72.79
2022-10-08T13:01:44.694Z,72.49
2022-10-08T13:04:19.053Z,73.12
2022-10-08T13:06:48.907Z,72.71
2022-10-08T13:09:26.213Z,71.64
2022-10-08T13:11:58.268Z,70.84
2022-10-08T13:14:31.184Z,71.86
2022-10-08T13:16:59.343Z,72.10
2022-10-08T13:19:30.777Z,71.87
2022-10-08T13:22:00.896Z,68.98
2022-10-08T13:24:31.978Z,69.23
2022-10-08T13:26:59.411Z,68.13
2022-10-08T13:29:33.582Z,67.70
2022-10-08T13:32:03.352Z,67.86
2022-10-08T13:34:34.374Z,69.50
2022-10-08T13:37:07.421Z,67.51
2022-10-08T13:39:37.905Z,66.78
2022-10-08T13:42:10.114Z,67.79
2022-10-08T13:44:39.661Z,66.69
2022-10-08T13:47:07.364Z,66.62
2022-10-08T13:49:34.916Z,65.94
2022-10-08T13:52:03.746Z,65.16
2022-10-08T13:54:34.394Z,65.49
2022-10-08T13:57:01.947Z,65.15
2022-10-08T13:59:30.852Z,66.42
2022-10-08T14:01:58.383Z,65.31
2022-10-08T14:04:25.860Z,64.81
2022-10-08T14:06:56.766Z,65.44
2022-10-08T14:09:28.541Z,64.90
2022-10-08T14:11:59.297Z,64.49
2022-10-08T14:14:28.438Z,64.10
2022-10-08T14:16:55.881Z,65.75
2022-10-08T14:19:23.455Z,65.60
2022-10-08T14:21:55.088Z,66.45
2022-10-08T14:24:25.067Z,67.11
2022-10-08T14:26:53.016Z,65.12
2022-10-08T14:29:20.412Z,66.63
2022-10-08T14:31:50.706Z,66.17
2022-10-08T14:34:18.127Z,65.83
2022-10-08T14:36:45.803Z,67.29
2022-10-08T14:39:13.203Z,73.21
2022-10-08T14:41:43.955Z,81.49
2022-10-08T14:44:13.336Z,80.87
2022-10-08T14:46:40.717Z,78.53
2022-10-08T14:49:08.199Z,77.56
2022-10-08T14:51:38.671Z,73.55
2022-10-08T14:54:06.894Z,71.35
2022-10-08T14:56:34.405Z,70.55
2022-10-08T14:59:03.168Z,72.18
2022-10-08T15:01:30.912Z,72.77
2022-10-08T15:03:58.387Z,73.89
2022-10-08T15:06:25.898Z,73.53
2022-10-08T15:08:53.299Z,73.31
2022-10-08T15:11:20.730Z,74.47
2022-10-08T15:13:48.131Z,79.84
2022-10-08T15:16:16.978Z,76.39
2022-10-08T15:18:44.926Z,76.72
2022-10-08T15:21:12.341Z,75.71
2022-10-08T15:23:39.728Z,72.83
2022-10-08T15:26:11.069Z,73.49
2022-10-08T15:28:39.156Z,73.11
2022-10-08T15:31:08.809Z,71.48
2022-10-08T15:33:41.187Z,71.28
2022-10-08T15:36:18.558Z,70.50
2022-10-08T15:38:46.258Z,71.61
2022-10-08T15:41:17.174Z,72.08
2022-10-08T15:43:44.715Z,72.30
2022-10-08T15:46:15.294Z,72.97
2022-10-08T15:48:51.734Z,73.65
2022-10-08T15:51:19.192Z,72.37
2022-10-08T15:53:46.643Z,71.74
2022-10-08T15:56:14.230Z,71.97
2022-10-08T15:58:56.788Z,71.66
2022-10-08T16:01:24.628Z,73.30
2022-10-08T16:03:54.801Z,70.95
2022-10-08T16:06:24.499Z,71.79
2022-10-08T16:08:52.475Z,70.73
2022-10-08T16:11:22.046Z,70.29
2022-10-08T16:13:52.034Z,69.98
2022-10-08T16:16:19.738Z,71.00
2022-10-08T16:18:50.980Z,70.66
2022-10-08T16:21:21.259Z,70.89
2022-10-08T16:23:49.022Z,69.72
2022-10-08T16:26:20.886Z,70.86
2022-10-08T16:28:49.711Z,69.38
2022-10-08T16:31:17.601Z,69.92
2022-10-08T16:33:45.994Z,70.18
2022-10-08T16:36:14.780Z,69.26
2022-10-08T16:38:43.487Z,69.18
2022-10-08T16:41:13.300Z,71.33
2022-10-08T16:43:40.746Z,70.61
2022-10-08T16:46:14.722Z,68.85
2022-10-08T16:48:42.300Z,69.17
2022-10-08T16:51:09.984Z,69.06
2022-10-08T16:53:37.437Z,70.21
2022-10-08T16:56:06.652Z,69.64
2022-10-08T16:58:34.174Z,70.32
2022-10-08T17:01:07.279Z,71.11
2022-10-08T17:03:35.372Z,71.16
2022-10-08T17:06:02.853Z,70.80
2022-10-08T17:08:30.866Z,71.02
2022-10-08T17:10:58.248Z,73.38
2022-10-08T17:13:26.983Z,72.10
2022-10-08T17:16:01.736Z,71.55
2022-10-08T17:18:30.286Z,71.89
2022-10-08T17:20:58.758Z,71.04
2022-10-08T17:23:27.525Z,71.76
2022-10-08T17:25:56.699Z,72.60
2022-10-08T17:28:29.524Z,73.27
2022-10-08T17:30:59.384Z,74.48
2022-10-08T17:33:28.171Z,75.93
2022-10-08T17:36:01.316Z,76.05
2022-10-08T17:38:29.078Z,76.23
2022-10-08T17:40:56.727Z,75.79
2022-10-08T17:43:24.850Z,75.99
2022-10-08T17:45:54.922Z,75.34
2022-10-08T17:48:22.334Z,76.17
2022-10-08T17:50:49.735Z,74.74
2022-10-08T17:53:17.111Z,74.92
2022-10-08T17:55:44.563Z,77.24
2022-10-08T17:58:12.087Z,78.79
2022-10-08T18:00:39.495Z,79.57
2022-10-08T18:03:09.851Z,81.77
2022-10-08T18:05:37.870Z,79.24
2022-10-08T18:08:05.314Z,78.44
2022-10-08T18:10:32.725Z,78.44
2022-10-08T18:13:02.071Z,77.83
2022-10-08T18:15:29.803Z,77.92
2022-10-08T18:17:57.254Z,79.91
2022-10-08T18:20:26.053Z,77.09
2022-10-08T18:22:53.458Z,78.41
2022-10-08T18:25:20.898Z,80.60
2022-10-08T18:27:48.966Z,79.53
2022-10-08T18:30:16.584Z,80.32
2022-10-08T18:32:43.973Z,79.93
2022-10-08T18:35:11.813Z,79.66
2022-10-08T18:37:40.515Z,81.11
2022-10-08T18:40:08.496Z,79.62
2022-10-08T18:42:35.951Z,81.00
2022-10-08T18:45:03.741Z,84.11
2022-10-08T18:47:32.927Z,80.76
2022-10-08T18:50:00.330Z,81.40
2022-10-08T18:52:27.801Z,82.30
2022-10-08T18:54:56.579Z,77.98
2022-10-08T18:57:24.010Z,77.75
2022-10-08T18:59:51.455Z,76.71
2022-10-08T19:02:18.948Z,78.31
2022-10-08T19:04:46.614Z,78.22
2022-10-08T19:07:14.034Z,78.48
2022-10-08T19:09:41.481Z,78.80
2022-10-08T19:12:10.207Z,77.63
2022-10-08T19:14:37.757Z,78.32
2022-10-08T19:17:05.179Z,78.14
2022-10-08T19:19:33.064Z,77.82
2022-10-08T19:22:01.643Z,77.77
2022-10-08T19:24:29.900Z,78.21
2022-10-08T19:26:58.399Z,78.65
2022-10-08T19:29:33.377Z,77.87
2022-10-08T19:32:00.831Z,77.22
2022-10-08T19:34:28.836Z,76.88
2022-10-08T19:36:56.851Z,78.45
2022-10-08T19:39:26.345Z,79.58
2022-10-08T19:41:54.213Z,83.41
2022-10-08T19:44:24.358Z,79.93
2022-10-08T19:46:53.276Z,79.62
2022-10-08T19:49:20.783Z,78.61
2022-10-08T19:51:48.332Z,78.64
2022-10-08T19:54:16.900Z,79.41
2022-10-08T19:56:44.789Z,80.48
2022-10-08T19:59:12.849Z,78.75
2022-10-08T20:01:41.353Z,77.66
2022-10-08T20:04:10.708Z,78.06
2022-10-08T20:06:40.009Z,76.92
2022-10-08T20:09:10.772Z,78.59
2022-10-08T20:11:39.231Z,78.59
2022-10-08T20:14:07.278Z,78.23
2022-10-08T20:16:36.526Z,78.33
2022-10-08T20:19:06.307Z,79.05
2022-10-08T20:21:37.056Z,79.97
2022-10-08T20:24:06.211Z,80.57
2022-10-08T20:26:35.863Z,78.21
2022-10-08T20:29:08.021Z,77.21
2022-10-08T20:31:37.124Z,76.62
2022-10-08T20:34:07.165Z,76.27
2022-10-08T20:36:35.979Z,77.61
2022-10-08T20:39:03.665Z,78.18
2022-10-08T20:41:31.509Z,76.86
2022-10-08T20:44:02.221Z,76.33
2022-10-08T20:46:30.051Z,76.61
2022-10-08T20:48:57.816Z,76.67
2022-10-08T20:51:26.645Z,76.05
2022-10-08T20:53:58.150Z,75.87
2022-10-08T20:56:26.840Z,76.05
2022-10-08T20:58:54.927Z,76.29
2022-10-08T21:01:24.378Z,76.46
2022-10-08T21:03:52.646Z,75.95
2022-10-08T21:06:22.048Z,78.00
2022-10-08T21:08:52.169Z,77.05
2022-10-08T21:11:22.897Z,76.35
2022-10-08T21:13:50.308Z,77.38
2022-10-08T21:16:21.518Z,78.63
2022-10-08T21:18:50.392Z,79.28
2022-10-08T21:21:18.340Z,78.54
2022-10-08T21:23:46.632Z,77.80
2022-10-08T21:26:16.324Z,78.17
2022-10-08T21:28:48.215Z,78.77
2022-10-08T21:31:16.227Z,78.27
2022-10-08T21:33:45.497Z,77.60
2022-10-08T21:36:15.473Z,78.47
2022-10-08T21:38:43.561Z,78.95
2022-10-08T21:41:13.333Z,78.27
2022-10-08T21:43:44.052Z,77.36
2022-10-08T21:46:15.273Z,77.58
2022-10-08T21:48:43.226Z,77.40
2022-10-08T21:51:12.882Z,78.14
2022-10-08T21:53:45.255Z,78.69
2022-10-08T21:56:15.420Z,77.56
2022-10-08T21:58:44.470Z,78.57
2022-10-08T22:01:23.862Z,78.89
2022-10-08T22:03:55.119Z,78.58
2022-10-08T22:06:23.062Z,77.90
2022-10-08T22:08:50.976Z,77.34
2022-10-08T22:11:19.228Z,77.47
2022-10-08T22:13:46.764Z,77.35
2022-10-08T22:16:16.299Z,77.49
2022-10-08T22:18:45.191Z,78.37
2022-10-08T22:21:14.397Z,77.61
2022-10-08T22:23:42.036Z,78.48
2022-10-08T22:26:12.416Z,76.91
2022-10-08T22:28:40.706Z,78.30
2022-10-08T22:31:10.705Z,76.61
2022-10-08T22:33:38.656Z,77.35
2022-10-08T22:36:09.094Z,77.38
2022-10-08T22:38:38.485Z,76.86
2022-10-08T22:41:08.328Z,77.66
2022-10-08T22:43:38.173Z,78.03
2022-10-08T22:46:07.613Z,77.51
2022-10-08T22:48:35.669Z,77.30
2022-10-08T22:51:04.245Z,77.36
2022-10-08T22:53:33.960Z,78.38
2022-10-08T22:56:04.748Z,77.07
2022-10-08T22:58:32.184Z,79.58
2022-10-08T23:01:00.660Z,79.03
2022-10-08T23:03:29.059Z,79.37
2022-10-08T23:06:05.315Z,78.22
2022-10-08T23:08:34.223Z,77.98
2022-10-08T23:11:02.684Z,78.12
2022-10-08T23:13:31.047Z,79.38
2022-10-08T23:16:03.602Z,78.01
2022-10-08T23:18:32.231Z,79.42
2022-10-08T23:21:02.667Z,78.92
2022-10-08T23:23:30.241Z,84.32
2022-10-08T23:26:00.767Z,78.26
2022-10-08T23:28:29.297Z,77.61
2022-10-08T23:31:04.936Z,78.78
2022-10-08T23:33:32.651Z,77.69
2022-10-08T23:36:00.130Z,78.10
2022-10-08T23:38:27.555Z,79.20
2022-10-08T23:41:00.054Z,78.37
2022-10-08T23:43:27.993Z,78.61
2022-10-08T23:45:55.924Z,78.71
2022-10-08T23:48:23.452Z,78.51
2022-10-08T23:50:54.282Z,79.54
2022-10-08T23:53:22.387Z,79.45
2022-10-08T23:55:50.092Z,79.11
2022-10-08T23:58:19.519Z,77.99
